Saint-Jean-sur-Richelieu, Canada
Current Conditions -  °F | °C
As of 1:38 PM on Tuesday 27 Jan 2015 (Local Time) from CYHU Reporting Station
Haze Haze  
Wind Chill: -11°   Ceiling: 14000
Heat Index:   Visibility: 6mi
Dew Point: -2°   Wind: 21mph
Humidity: 62%   Direction: 40°NE
Pressure: 30.05"   Gusts: 31mph
Location:  45.32°N, 73.27°W
Report Text: CYHU 271838Z AUTO 04018G27KT 6SM HZ BKN140 M13/M19 A3005 RMK SLP177
Loading
Personal Weather Stations






























Interactive Weather Map New forecast layout! Learn more

10-Day Weather Forecast

Advertisements
Track Severe Weather on mobile